sensor_id;sensor_type;location;lat;lon;timestamp;P1;durP1;ratioP1;P2;durP2;ratioP2
62931;SDS011;49037;41.898;25.004;2023-06-19T00:00:16;8.50;;;5.80;;
62931;SDS011;49037;41.898;25.004;2023-06-19T00:02:42;9.60;;;5.88;;
62931;SDS011;49037;41.898;25.004;2023-06-19T00:05:36;9.25;;;5.55;;
62931;SDS011;49037;41.898;25.004;2023-06-19T00:08:01;10.43;;;5.78;;
62931;SDS011;49037;41.898;25.004;2023-06-19T00:10:32;7.75;;;5.30;;
62931;SDS011;49037;41.898;25.004;2023-06-19T00:13:04;8.73;;;5.80;;
62931;SDS011;49037;41.898;25.004;2023-06-19T00:15:29;10.23;;;5.50;;
62931;SDS011;49037;41.898;25.004;2023-06-19T00:18:01;8.55;;;5.30;;
62931;SDS011;49037;41.898;25.004;2023-06-19T00:20:26;9.20;;;5.30;;
62931;SDS011;49037;41.898;25.004;2023-06-19T00:22:52;11.82;;;6.18;;
62931;SDS011;49037;41.898;25.004;2023-06-19T00:25:21;7.65;;;5.25;;
62931;SDS011;49037;41.898;25.004;2023-06-19T00:27:48;7.38;;;5.32;;
62931;SDS011;49037;41.898;25.004;2023-06-19T00:30:14;9.13;;;6.32;;
62931;SDS011;49037;41.898;25.004;2023-06-19T00:32:40;7.80;;;5.43;;
62931;SDS011;49037;41.898;25.004;2023-06-19T00:35:14;8.63;;;6.18;;
62931;SDS011;49037;41.898;25.004;2023-06-19T00:37:41;8.25;;;5.63;;
62931;SDS011;49037;41.898;25.004;2023-06-19T00:40:14;8.45;;;5.80;;
62931;SDS011;49037;41.898;25.004;2023-06-19T00:42:44;13.68;;;6.07;;
62931;SDS011;49037;41.898;25.004;2023-06-19T00:45:09;9.63;;;5.53;;
62931;SDS011;49037;41.898;25.004;2023-06-19T00:47:35;9.18;;;6.40;;
62931;SDS011;49037;41.898;25.004;2023-06-19T00:50:00;11.70;;;6.38;;
62931;SDS011;49037;41.898;25.004;2023-06-19T00:52:26;9.57;;;6.00;;
62931;SDS011;49037;41.898;25.004;2023-06-19T00:54:51;7.68;;;5.40;;
62931;SDS011;49037;41.898;25.004;2023-06-19T00:57:18;9.18;;;6.20;;
62931;SDS011;49037;41.898;25.004;2023-06-19T00:59:44;11.68;;;6.22;;
62931;SDS011;49037;41.898;25.004;2023-06-19T01:02:09;10.07;;;6.40;;
62931;SDS011;49037;41.898;25.004;2023-06-19T01:04:38;8.50;;;6.13;;
62931;SDS011;49037;41.898;25.004;2023-06-19T01:07:08;9.63;;;5.90;;
62931;SDS011;49037;41.898;25.004;2023-06-19T01:09:42;9.25;;;6.32;;
62931;SDS011;49037;41.898;25.004;2023-06-19T01:12:15;8.43;;;5.63;;
62931;SDS011;49037;41.898;25.004;2023-06-19T01:15:43;10.25;;;5.82;;
62931;SDS011;49037;41.898;25.004;2023-06-19T01:18:12;10.73;;;6.28;;
62931;SDS011;49037;41.898;25.004;2023-06-19T01:20:38;8.27;;;5.82;;
62931;SDS011;49037;41.898;25.004;2023-06-19T01:23:10;9.35;;;6.20;;
62931;SDS011;49037;41.898;25.004;2023-06-19T01:25:37;8.32;;;5.68;;
62931;SDS011;49037;41.898;25.004;2023-06-19T01:28:03;9.90;;;6.53;;
62931;SDS011;49037;41.898;25.004;2023-06-19T01:30:37;11.20;;;6.15;;
62931;SDS011;49037;41.898;25.004;2023-06-19T01:33:13;8.65;;;6.25;;
62931;SDS011;49037;41.898;25.004;2023-06-19T01:35:43;9.75;;;6.78;;
62931;SDS011;49037;41.898;25.004;2023-06-19T01:38:10;9.77;;;6.40;;
62931;SDS011;49037;41.898;25.004;2023-06-19T01:40:37;11.25;;;6.72;;
62931;SDS011;49037;41.898;25.004;2023-06-19T01:43:04;8.75;;;6.40;;
62931;SDS011;49037;41.898;25.004;2023-06-19T01:45:30;10.82;;;6.85;;
62931;SDS011;49037;41.898;25.004;2023-06-19T01:47:56;10.40;;;6.45;;
62931;SDS011;49037;41.898;25.004;2023-06-19T01:50:22;13.70;;;6.70;;
62931;SDS011;49037;41.898;25.004;2023-06-19T01:52:49;10.88;;;6.88;;
62931;SDS011;49037;41.898;25.004;2023-06-19T01:55:14;9.43;;;6.63;;
62931;SDS011;49037;41.898;25.004;2023-06-19T01:57:40;9.82;;;6.60;;
62931;SDS011;49037;41.898;25.004;2023-06-19T02:00:06;9.95;;;6.80;;
62931;SDS011;49037;41.898;25.004;2023-06-19T02:02:38;9.93;;;6.25;;
62931;SDS011;49037;41.898;25.004;2023-06-19T02:05:04;12.05;;;7.22;;
62931;SDS011;49037;41.898;25.004;2023-06-19T02:07:30;11.85;;;7.07;;
62931;SDS011;49037;41.898;25.004;2023-06-19T02:10:00;9.65;;;6.75;;
62931;SDS011;49037;41.898;25.004;2023-06-19T02:12:26;9.68;;;6.60;;
62931;SDS011;49037;41.898;25.004;2023-06-19T02:14:51;11.98;;;6.93;;
62931;SDS011;49037;41.898;25.004;2023-06-19T02:17:20;11.48;;;7.35;;
62931;SDS011;49037;41.898;25.004;2023-06-19T02:19:45;10.07;;;7.10;;
62931;SDS011;49037;41.898;25.004;2023-06-19T02:22:11;10.82;;;6.75;;
62931;SDS011;49037;41.898;25.004;2023-06-19T02:24:36;12.48;;;7.07;;
62931;SDS011;49037;41.898;25.004;2023-06-19T02:27:02;9.80;;;7.00;;
62931;SDS011;49037;41.898;25.004;2023-06-19T02:29:27;12.13;;;7.53;;
62931;SDS011;49037;41.898;25.004;2023-06-19T02:31:54;11.05;;;6.70;;
62931;SDS011;49037;41.898;25.004;2023-06-19T02:34:23;9.68;;;6.93;;
62931;SDS011;49037;41.898;25.004;2023-06-19T02:36:49;9.15;;;6.05;;
62931;SDS011;49037;41.898;25.004;2023-06-19T02:39:20;10.52;;;7.30;;
62931;SDS011;49037;41.898;25.004;2023-06-19T02:41:46;11.63;;;7.30;;
62931;SDS011;49037;41.898;25.004;2023-06-19T02:44:15;10.27;;;7.13;;
62931;SDS011;49037;41.898;25.004;2023-06-19T02:46:43;8.98;;;6.25;;
62931;SDS011;49037;41.898;25.004;2023-06-19T02:49:08;10.77;;;7.03;;
62931;SDS011;49037;41.898;25.004;2023-06-19T02:51:34;9.18;;;6.95;;
62931;SDS011;49037;41.898;25.004;2023-06-19T02:53:59;9.35;;;6.78;;
62931;SDS011;49037;41.898;25.004;2023-06-19T02:56:26;9.63;;;6.68;;
62931;SDS011;49037;41.898;25.004;2023-06-19T02:58:52;9.35;;;6.57;;
62931;SDS011;49037;41.898;25.004;2023-06-19T03:01:18;10.00;;;6.88;;
62931;SDS011;49037;41.898;25.004;2023-06-19T03:03:43;10.15;;;6.95;;
62931;SDS011;49037;41.898;25.004;2023-06-19T03:06:11;7.75;;;5.60;;
62931;SDS011;49037;41.898;25.004;2023-06-19T03:09:22;10.30;;;7.00;;
62931;SDS011;49037;41.898;25.004;2023-06-19T03:11:48;9.85;;;6.70;;
62931;SDS011;49037;41.898;25.004;2023-06-19T03:14:13;11.55;;;6.50;;
62931;SDS011;49037;41.898;25.004;2023-06-19T03:16:39;12.63;;;6.63;;
62931;SDS011;49037;41.898;25.004;2023-06-19T03:19:04;11.35;;;6.60;;
62931;SDS011;49037;41.898;25.004;2023-06-19T03:21:30;11.88;;;7.05;;
62931;SDS011;49037;41.898;25.004;2023-06-19T03:23:55;9.48;;;6.75;;
62931;SDS011;49037;41.898;25.004;2023-06-19T03:26:21;8.57;;;6.25;;
62931;SDS011;49037;41.898;25.004;2023-06-19T03:28:47;10.25;;;6.78;;
62931;SDS011;49037;41.898;25.004;2023-06-19T03:31:12;9.88;;;6.65;;
62931;SDS011;49037;41.898;25.004;2023-06-19T03:33:38;9.55;;;6.40;;
62931;SDS011;49037;41.898;25.004;2023-06-19T03:36:04;8.13;;;6.32;;
62931;SDS011;49037;41.898;25.004;2023-06-19T03:38:30;10.10;;;6.55;;
62931;SDS011;49037;41.898;25.004;2023-06-19T03:40:56;7.38;;;5.95;;
62931;SDS011;49037;41.898;25.004;2023-06-19T03:43:21;7.65;;;5.95;;
62931;SDS011;49037;41.898;25.004;2023-06-19T03:45:47;8.02;;;6.10;;
62931;SDS011;49037;41.898;25.004;2023-06-19T03:48:12;8.45;;;6.38;;
62931;SDS011;49037;41.898;25.004;2023-06-19T03:50:38;10.68;;;6.07;;
62931;SDS011;49037;41.898;25.004;2023-06-19T03:53:03;8.88;;;5.88;;
62931;SDS011;49037;41.898;25.004;2023-06-19T03:55:29;12.35;;;6.40;;
62931;SDS011;49037;41.898;25.004;2023-06-19T03:57:55;9.13;;;6.80;;
62931;SDS011;49037;41.898;25.004;2023-06-19T04:00:20;9.18;;;6.75;;
62931;SDS011;49037;41.898;25.004;2023-06-19T04:02:46;7.68;;;6.53;;
62931;SDS011;49037;41.898;25.004;2023-06-19T04:05:12;10.32;;;6.03;;
62931;SDS011;49037;41.898;25.004;2023-06-19T04:07:38;10.32;;;6.40;;
62931;SDS011;49037;41.898;25.004;2023-06-19T04:12:37;10.30;;;6.20;;
62931;SDS011;49037;41.898;25.004;2023-06-19T04:18:13;8.68;;;6.07;;
62931;SDS011;49037;41.898;25.004;2023-06-19T04:20:38;9.38;;;6.00;;
62931;SDS011;49037;41.898;25.004;2023-06-19T04:25:36;7.93;;;5.70;;
62931;SDS011;49037;41.898;25.004;2023-06-19T04:28:42;7.60;;;5.95;;
62931;SDS011;49037;41.898;25.004;2023-06-19T04:31:07;8.20;;;5.80;;
62931;SDS011;49037;41.898;25.004;2023-06-19T04:33:33;8.20;;;5.82;;
62931;SDS011;49037;41.898;25.004;2023-06-19T04:35:58;8.45;;;5.68;;
62931;SDS011;49037;41.898;25.004;2023-06-19T04:38:23;7.75;;;6.13;;
62931;SDS011;49037;41.898;25.004;2023-06-19T04:40:50;6.22;;;5.30;;
62931;SDS011;49037;41.898;25.004;2023-06-19T04:43:16;10.25;;;5.85;;
62931;SDS011;49037;41.898;25.004;2023-06-19T04:49:14;9.35;;;5.60;;
62931;SDS011;49037;41.898;25.004;2023-06-19T04:51:40;8.80;;;5.70;;
62931;SDS011;49037;41.898;25.004;2023-06-19T05:03:50;6.43;;;5.70;;
62931;SDS011;49037;41.898;25.004;2023-06-19T05:07:01;7.63;;;5.30;;
62931;SDS011;49037;41.898;25.004;2023-06-19T05:10:16;6.13;;;5.03;;
62931;SDS011;49037;41.898;25.004;2023-06-19T05:12:41;8.98;;;5.88;;
62931;SDS011;49037;41.898;25.004;2023-06-19T05:15:07;6.18;;;5.20;;
62931;SDS011;49037;41.898;25.004;2023-06-19T05:17:33;6.72;;;5.50;;
62931;SDS011;49037;41.898;25.004;2023-06-19T05:20:30;6.07;;;4.95;;
62931;SDS011;49037;41.898;25.004;2023-06-19T05:22:56;6.32;;;4.88;;
62931;SDS011;49037;41.898;25.004;2023-06-19T05:25:21;8.80;;;5.80;;
62931;SDS011;49037;41.898;25.004;2023-06-19T05:27:47;6.78;;;5.22;;
62931;SDS011;49037;41.898;25.004;2023-06-19T05:30:12;6.78;;;5.03;;
62931;SDS011;49037;41.898;25.004;2023-06-19T05:32:38;7.22;;;5.32;;
62931;SDS011;49037;41.898;25.004;2023-06-19T05:35:03;8.00;;;5.47;;
62931;SDS011;49037;41.898;25.004;2023-06-19T05:39:28;7.25;;;5.38;;
62931;SDS011;49037;41.898;25.004;2023-06-19T05:41:53;7.78;;;5.20;;
62931;SDS011;49037;41.898;25.004;2023-06-19T05:44:18;8.95;;;5.47;;
62931;SDS011;49037;41.898;25.004;2023-06-19T05:46:44;5.80;;;5.18;;
62931;SDS011;49037;41.898;25.004;2023-06-19T05:49:09;8.18;;;5.90;;
62931;SDS011;49037;41.898;25.004;2023-06-19T05:51:35;6.00;;;5.40;;
62931;SDS011;49037;41.898;25.004;2023-06-19T05:54:01;6.63;;;5.13;;
62931;SDS011;49037;41.898;25.004;2023-06-19T05:56:32;7.88;;;4.97;;
62931;SDS011;49037;41.898;25.004;2023-06-19T05:58:58;6.07;;;4.75;;
62931;SDS011;49037;41.898;25.004;2023-06-19T06:01:25;6.97;;;4.85;;
62931;SDS011;49037;41.898;25.004;2023-06-19T06:03:52;5.68;;;4.80;;
62931;SDS011;49037;41.898;25.004;2023-06-19T06:06:19;6.25;;;5.18;;
62931;SDS011;49037;41.898;25.004;2023-06-19T06:08:45;7.18;;;5.05;;
62931;SDS011;49037;41.898;25.004;2023-06-19T06:11:11;8.50;;;5.28;;
62931;SDS011;49037;41.898;25.004;2023-06-19T06:13:36;7.63;;;5.30;;
62931;SDS011;49037;41.898;25.004;2023-06-19T06:16:02;6.07;;;5.40;;
62931;SDS011;49037;41.898;25.004;2023-06-19T06:18:27;6.18;;;5.13;;
62931;SDS011;49037;41.898;25.004;2023-06-19T06:20:52;7.95;;;5.20;;
62931;SDS011;49037;41.898;25.004;2023-06-19T06:23:18;8.25;;;5.05;;
62931;SDS011;49037;41.898;25.004;2023-06-19T06:25:43;6.03;;;5.18;;
62931;SDS011;49037;41.898;25.004;2023-06-19T06:30:13;6.38;;;5.32;;
62931;SDS011;49037;41.898;25.004;2023-06-19T06:35:28;6.25;;;5.00;;
62931;SDS011;49037;41.898;25.004;2023-06-19T06:37:59;6.93;;;5.43;;
62931;SDS011;49037;41.898;25.004;2023-06-19T06:40:27;6.50;;;5.30;;
62931;SDS011;49037;41.898;25.004;2023-06-19T06:42:53;6.85;;;4.70;;
62931;SDS011;49037;41.898;25.004;2023-06-19T06:45:19;6.80;;;5.50;;
62931;SDS011;49037;41.898;25.004;2023-06-19T06:47:44;7.43;;;4.97;;
62931;SDS011;49037;41.898;25.004;2023-06-19T06:50:19;7.78;;;5.80;;
62931;SDS011;49037;41.898;25.004;2023-06-19T06:53:02;9.85;;;5.18;;
62931;SDS011;49037;41.898;25.004;2023-06-19T06:55:28;6.63;;;4.78;;
62931;SDS011;49037;41.898;25.004;2023-06-19T06:57:54;5.78;;;5.03;;
62931;SDS011;49037;41.898;25.004;2023-06-19T07:00:20;5.30;;;4.80;;
62931;SDS011;49037;41.898;25.004;2023-06-19T07:02:45;5.60;;;4.97;;
62931;SDS011;49037;41.898;25.004;2023-06-19T07:05:13;10.40;;;5.65;;
62931;SDS011;49037;41.898;25.004;2023-06-19T07:07:38;6.40;;;5.40;;
62931;SDS011;49037;41.898;25.004;2023-06-19T07:10:06;8.32;;;5.70;;
62931;SDS011;49037;41.898;25.004;2023-06-19T07:12:32;6.05;;;5.22;;
62931;SDS011;49037;41.898;25.004;2023-06-19T07:15:01;5.68;;;5.05;;
62931;SDS011;49037;41.898;25.004;2023-06-19T07:17:27;6.95;;;5.90;;
62931;SDS011;49037;41.898;25.004;2023-06-19T07:19:52;8.07;;;5.32;;
62931;SDS011;49037;41.898;25.004;2023-06-19T07:22:20;8.52;;;5.80;;
62931;SDS011;49037;41.898;25.004;2023-06-19T07:24:53;5.60;;;4.95;;
62931;SDS011;49037;41.898;25.004;2023-06-19T07:27:29;5.55;;;4.88;;
62931;SDS011;49037;41.898;25.004;2023-06-19T07:29:58;7.97;;;5.95;;
62931;SDS011;49037;41.898;25.004;2023-06-19T07:32:34;5.95;;;5.05;;
62931;SDS011;49037;41.898;25.004;2023-06-19T07:35:10;16.55;;;10.50;;
62931;SDS011;49037;41.898;25.004;2023-06-19T07:38:02;12.63;;;8.05;;
62931;SDS011;49037;41.898;25.004;2023-06-19T07:40:37;7.63;;;5.15;;
62931;SDS011;49037;41.898;25.004;2023-06-19T07:46:45;6.90;;;5.75;;
62931;SDS011;49037;41.898;25.004;2023-06-19T07:49:13;6.60;;;5.20;;
62931;SDS011;49037;41.898;25.004;2023-06-19T07:54:47;4.97;;;4.43;;
62931;SDS011;49037;41.898;25.004;2023-06-19T07:57:22;7.25;;;5.47;;
62931;SDS011;49037;41.898;25.004;2023-06-19T08:00:24;7.85;;;5.10;;
62931;SDS011;49037;41.898;25.004;2023-06-19T08:02:49;6.32;;;4.95;;
62931;SDS011;49037;41.898;25.004;2023-06-19T08:11:41;7.65;;;5.45;;
62931;SDS011;49037;41.898;25.004;2023-06-19T08:21:15;6.10;;;5.00;;
62931;SDS011;49037;41.898;25.004;2023-06-19T08:23:46;5.18;;;4.63;;
62931;SDS011;49037;41.898;25.004;2023-06-19T08:32:49;6.97;;;4.57;;
62931;SDS011;49037;41.898;25.004;2023-06-19T08:38:17;6.40;;;4.70;;
62931;SDS011;49037;41.898;25.004;2023-06-19T08:41:02;6.28;;;4.95;;
62931;SDS011;49037;41.898;25.004;2023-06-19T08:46:53;7.20;;;4.78;;
62931;SDS011;49037;41.898;25.004;2023-06-19T08:49:54;5.32;;;4.35;;
62931;SDS011;49037;41.898;25.004;2023-06-19T08:56:14;7.57;;;5.05;;
62931;SDS011;49037;41.898;25.004;2023-06-19T09:34:45;4.72;;;4.20;;
62931;SDS011;49037;41.898;25.004;2023-06-19T09:40:25;4.85;;;4.35;;
62931;SDS011;49037;41.898;25.004;2023-06-19T11:31:08;6.00;;;4.07;;
62931;SDS011;49037;41.898;25.004;2023-06-19T11:40:19;5.55;;;4.65;;
62931;SDS011;49037;41.898;25.004;2023-06-19T15:01:16;6.75;;;5.28;;
62931;SDS011;49037;41.898;25.004;2023-06-19T15:07:57;8.68;;;5.72;;
62931;SDS011;49037;41.898;25.004;2023-06-19T15:10:33;5.95;;;5.07;;
62931;SDS011;49037;41.898;25.004;2023-06-19T15:13:08;6.35;;;5.35;;
62931;SDS011;49037;41.898;25.004;2023-06-19T15:19:00;6.68;;;5.28;;
62931;SDS011;49037;41.898;25.004;2023-06-19T15:21:49;9.20;;;5.93;;
62931;SDS011;49037;41.898;25.004;2023-06-19T15:27:57;5.93;;;5.32;;
62931;SDS011;49037;41.898;25.004;2023-06-19T15:30:32;5.63;;;5.13;;
62931;SDS011;49037;41.898;25.004;2023-06-19T15:33:48;8.38;;;5.18;;
62931;SDS011;49037;41.898;25.004;2023-06-19T15:46:46;7.57;;;6.28;;
62931;SDS011;49037;41.898;25.004;2023-06-19T15:49:13;12.63;;;8.05;;
62931;SDS011;49037;41.898;25.004;2023-06-19T15:54:55;10.40;;;6.15;;
62931;SDS011;49037;41.898;25.004;2023-06-19T15:57:46;8.30;;;5.93;;
62931;SDS011;49037;41.898;25.004;2023-06-19T16:00:19;6.28;;;5.55;;
62931;SDS011;49037;41.898;25.004;2023-06-19T16:06:52;7.53;;;5.68;;
62931;SDS011;49037;41.898;25.004;2023-06-19T16:13:53;12.27;;;8.40;;
62931;SDS011;49037;41.898;25.004;2023-06-19T16:18:25;8.30;;;6.47;;
62931;SDS011;49037;41.898;25.004;2023-06-19T16:20:53;13.05;;;7.10;;
62931;SDS011;49037;41.898;25.004;2023-06-19T16:23:21;9.70;;;6.30;;
62931;SDS011;49037;41.898;25.004;2023-06-19T16:25:56;7.13;;;5.40;;
62931;SDS011;49037;41.898;25.004;2023-06-19T16:28:34;6.13;;;5.38;;
62931;SDS011;49037;41.898;25.004;2023-06-19T16:34:38;9.02;;;5.38;;
62931;SDS011;49037;41.898;25.004;2023-06-19T16:57:21;9.68;;;5.30;;
62931;SDS011;49037;41.898;25.004;2023-06-19T17:55:41;8.70;;;6.05;;
62931;SDS011;49037;41.898;25.004;2023-06-19T17:58:11;9.02;;;5.75;;
62931;SDS011;49037;41.898;25.004;2023-06-19T18:00:40;7.18;;;5.70;;
62931;SDS011;49037;41.898;25.004;2023-06-19T18:24:39;7.72;;;6.47;;
62931;SDS011;49037;41.898;25.004;2023-06-19T18:27:21;8.63;;;6.00;;
62931;SDS011;49037;41.898;25.004;2023-06-19T18:30:06;7.68;;;5.97;;
62931;SDS011;49037;41.898;25.004;2023-06-19T18:36:14;10.55;;;5.80;;
62931;SDS011;49037;41.898;25.004;2023-06-19T18:52:56;6.80;;;5.68;;
62931;SDS011;49037;41.898;25.004;2023-06-19T18:58:41;9.73;;;5.40;;
62931;SDS011;49037;41.898;25.004;2023-06-19T19:27:13;6.10;;;4.63;;
62931;SDS011;49037;41.898;25.004;2023-06-19T19:35:46;6.75;;;4.60;;
62931;SDS011;49037;41.898;25.004;2023-06-19T19:38:12;7.03;;;4.65;;
62931;SDS011;49037;41.898;25.004;2023-06-19T19:40:56;5.40;;;4.20;;
62931;SDS011;49037;41.898;25.004;2023-06-19T19:43:25;7.03;;;4.55;;
62931;SDS011;49037;41.898;25.004;2023-06-19T19:45:56;6.25;;;3.97;;
62931;SDS011;49037;41.898;25.004;2023-06-19T19:51:28;6.13;;;4.82;;
62931;SDS011;49037;41.898;25.004;2023-06-19T19:53:55;9.25;;;4.80;;
62931;SDS011;49037;41.898;25.004;2023-06-19T19:56:23;5.60;;;4.50;;
62931;SDS011;49037;41.898;25.004;2023-06-19T19:58:51;7.85;;;4.70;;
62931;SDS011;49037;41.898;25.004;2023-06-19T20:03:12;6.35;;;4.38;;
62931;SDS011;49037;41.898;25.004;2023-06-19T20:05:40;5.20;;;4.10;;
62931;SDS011;49037;41.898;25.004;2023-06-19T20:09:54;9.52;;;4.40;;
62931;SDS011;49037;41.898;25.004;2023-06-19T20:12:20;5.22;;;4.10;;
62931;SDS011;49037;41.898;25.004;2023-06-19T20:14:54;7.68;;;4.20;;
62931;SDS011;49037;41.898;25.004;2023-06-19T20:26:41;6.40;;;3.88;;
62931;SDS011;49037;41.898;25.004;2023-06-19T20:29:14;4.20;;;3.80;;
62931;SDS011;49037;41.898;25.004;2023-06-19T20:35:50;5.53;;;3.75;;
62931;SDS011;49037;41.898;25.004;2023-06-19T20:39:53;7.55;;;3.95;;
62931;SDS011;49037;41.898;25.004;2023-06-19T20:42:21;6.57;;;3.92;;
62931;SDS011;49037;41.898;25.004;2023-06-19T20:44:46;5.45;;;4.00;;
62931;SDS011;49037;41.898;25.004;2023-06-19T20:48:17;5.38;;;3.88;;
62931;SDS011;49037;41.898;25.004;2023-06-19T20:50:45;4.43;;;3.45;;
62931;SDS011;49037;41.898;25.004;2023-06-19T20:53:15;5.78;;;3.72;;
62931;SDS011;49037;41.898;25.004;2023-06-19T20:58:05;6.10;;;3.85;;
62931;SDS011;49037;41.898;25.004;2023-06-19T21:00:31;5.60;;;3.97;;
62931;SDS011;49037;41.898;25.004;2023-06-19T21:02:58;4.97;;;3.88;;
62931;SDS011;49037;41.898;25.004;2023-06-19T21:05:59;4.57;;;3.70;;
62931;SDS011;49037;41.898;25.004;2023-06-19T21:08:25;5.13;;;3.80;;
62931;SDS011;49037;41.898;25.004;2023-06-19T21:13:45;6.65;;;4.45;;
62931;SDS011;49037;41.898;25.004;2023-06-19T21:16:11;8.30;;;3.97;;
62931;SDS011;49037;41.898;25.004;2023-06-19T21:18:37;5.45;;;3.72;;
62931;SDS011;49037;41.898;25.004;2023-06-19T21:21:05;5.53;;;3.95;;
62931;SDS011;49037;41.898;25.004;2023-06-19T21:23:30;4.45;;;3.90;;
62931;SDS011;49037;41.898;25.004;2023-06-19T21:25:56;5.00;;;3.83;;
62931;SDS011;49037;41.898;25.004;2023-06-19T21:28:21;6.97;;;3.90;;
62931;SDS011;49037;41.898;25.004;2023-06-19T21:30:47;7.65;;;4.00;;
62931;SDS011;49037;41.898;25.004;2023-06-19T21:33:12;6.15;;;3.78;;
62931;SDS011;49037;41.898;25.004;2023-06-19T21:35:38;5.05;;;3.90;;
62931;SDS011;49037;41.898;25.004;2023-06-19T21:38:03;8.23;;;4.45;;
62931;SDS011;49037;41.898;25.004;2023-06-19T21:42:15;5.82;;;4.15;;
62931;SDS011;49037;41.898;25.004;2023-06-19T21:44:40;6.45;;;4.30;;
62931;SDS011;49037;41.898;25.004;2023-06-19T21:47:08;5.75;;;4.20;;
62931;SDS011;49037;41.898;25.004;2023-06-19T21:49:33;6.68;;;4.00;;
62931;SDS011;49037;41.898;25.004;2023-06-19T21:51:59;6.00;;;4.03;;
62931;SDS011;49037;41.898;25.004;2023-06-19T21:55:28;5.55;;;4.28;;
62931;SDS011;49037;41.898;25.004;2023-06-19T21:57:54;6.55;;;4.28;;
62931;SDS011;49037;41.898;25.004;2023-06-19T22:00:19;7.47;;;4.40;;
62931;SDS011;49037;41.898;25.004;2023-06-19T22:02:47;6.10;;;4.03;;
62931;SDS011;49037;41.898;25.004;2023-06-19T22:05:13;8.02;;;4.22;;
62931;SDS011;49037;41.898;25.004;2023-06-19T22:07:38;4.30;;;3.80;;
62931;SDS011;49037;41.898;25.004;2023-06-19T22:10:04;6.70;;;4.00;;
62931;SDS011;49037;41.898;25.004;2023-06-19T22:12:30;4.93;;;3.85;;
62931;SDS011;49037;41.898;25.004;2023-06-19T22:15:20;5.40;;;4.18;;
62931;SDS011;49037;41.898;25.004;2023-06-19T22:19:30;7.05;;;4.13;;
62931;SDS011;49037;41.898;25.004;2023-06-19T22:21:55;8.32;;;4.65;;
62931;SDS011;49037;41.898;25.004;2023-06-19T22:24:21;7.80;;;4.30;;
62931;SDS011;49037;41.898;25.004;2023-06-19T22:26:46;6.72;;;4.47;;
62931;SDS011;49037;41.898;25.004;2023-06-19T22:29:11;7.35;;;4.45;;
62931;SDS011;49037;41.898;25.004;2023-06-19T22:31:37;5.18;;;3.95;;
62931;SDS011;49037;41.898;25.004;2023-06-19T22:34:03;6.18;;;4.47;;
62931;SDS011;49037;41.898;25.004;2023-06-19T22:36:28;7.82;;;4.63;;
62931;SDS011;49037;41.898;25.004;2023-06-19T22:39:20;6.43;;;4.50;;
62931;SDS011;49037;41.898;25.004;2023-06-19T22:41:45;6.18;;;4.07;;
62931;SDS011;49037;41.898;25.004;2023-06-19T22:44:11;6.07;;;4.10;;
62931;SDS011;49037;41.898;25.004;2023-06-19T22:46:36;5.25;;;4.05;;
62931;SDS011;49037;41.898;25.004;2023-06-19T22:49:01;7.78;;;4.45;;
62931;SDS011;49037;41.898;25.004;2023-06-19T22:51:29;6.13;;;4.53;;
62931;SDS011;49037;41.898;25.004;2023-06-19T22:53:54;7.28;;;4.63;;
62931;SDS011;49037;41.898;25.004;2023-06-19T22:58:11;4.65;;;4.03;;
62931;SDS011;49037;41.898;25.004;2023-06-19T23:00:37;4.45;;;4.00;;
62931;SDS011;49037;41.898;25.004;2023-06-19T23:03:02;6.40;;;4.60;;
62931;SDS011;49037;41.898;25.004;2023-06-19T23:05:29;5.65;;;4.22;;
62931;SDS011;49037;41.898;25.004;2023-06-19T23:07:54;7.35;;;4.80;;
62931;SDS011;49037;41.898;25.004;2023-06-19T23:10:20;5.35;;;4.47;;
62931;SDS011;49037;41.898;25.004;2023-06-19T23:12:51;5.63;;;4.22;;
62931;SDS011;49037;41.898;25.004;2023-06-19T23:15:17;6.05;;;4.15;;
62931;SDS011;49037;41.898;25.004;2023-06-19T23:17:42;8.38;;;4.40;;
62931;SDS011;49037;41.898;25.004;2023-06-19T23:20:08;6.57;;;4.75;;
62931;SDS011;49037;41.898;25.004;2023-06-19T23:22:39;6.95;;;4.85;;
62931;SDS011;49037;41.898;25.004;2023-06-19T23:25:05;5.55;;;4.47;;
62931;SDS011;49037;41.898;25.004;2023-06-19T23:27:31;6.05;;;4.35;;
62931;SDS011;49037;41.898;25.004;2023-06-19T23:30:07;6.63;;;4.07;;
62931;SDS011;49037;41.898;25.004;2023-06-19T23:32:41;6.20;;;4.60;;
62931;SDS011;49037;41.898;25.004;2023-06-19T23:35:07;5.85;;;4.20;;
62931;SDS011;49037;41.898;25.004;2023-06-19T23:37:43;7.10;;;4.50;;
62931;SDS011;49037;41.898;25.004;2023-06-19T23:40:16;7.25;;;4.47;;
62931;SDS011;49037;41.898;25.004;2023-06-19T23:42:50;6.15;;;4.35;;
62931;SDS011;49037;41.898;25.004;2023-06-19T23:45:24;7.22;;;4.43;;
62931;SDS011;49037;41.898;25.004;2023-06-19T23:47:51;6.95;;;4.50;;
62931;SDS011;49037;41.898;25.004;2023-06-19T23:50:24;8.95;;;4.70;;
62931;SDS011;49037;41.898;25.004;2023-06-19T23:52:52;5.32;;;4.05;;
62931;SDS011;49037;41.898;25.004;2023-06-19T23:55:20;9.00;;;4.85;;
62931;SDS011;49037;41.898;25.004;2023-06-19T23:57:45;6.70;;;4.40;;
